createdAt,value
2018-03-31T00:00:50.722Z,98469.77
2018-03-31T00:03:19.086Z,98471.51
2018-03-31T00:05:47.440Z,98469.45
2018-03-31T00:08:15.821Z,98474.48
2018-03-31T00:10:44.299Z,98461.59
2018-03-31T00:13:12.659Z,98475.88
2018-03-31T00:15:41.007Z,98473.34
2018-03-31T00:18:09.371Z,98477.48
2018-03-31T00:20:37.733Z,98471.07
2018-03-31T00:23:06.091Z,98477.98
2018-03-31T00:25:34.444Z,98475.13
2018-03-31T00:28:02.814Z,98478.63
2018-03-31T00:30:31.978Z,98482.97
2018-03-31T00:33:00.410Z,98484.86
2018-03-31T00:35:29.559Z,98488.91
2018-03-31T00:37:57.990Z,98484.60
2018-03-31T00:40:26.375Z,98481.50
2018-03-31T00:42:55.484Z,98481.76
2018-03-31T00:45:23.829Z,98487.17
2018-03-31T00:47:52.172Z,98473.17
2018-03-31T00:50:20.511Z,98478.80
2018-03-31T00:52:49.627Z,98470.19
2018-03-31T00:55:18.015Z,98479.62
2018-03-31T00:57:46.374Z,98480.55
2018-03-31T01:00:15.512Z,98478.27
2018-03-31T01:02:43.874Z,98473.00
2018-03-31T01:05:12.246Z,98472.99
2018-03-31T01:07:40.685Z,98476.02
2018-03-31T01:10:10.015Z,98476.20
2018-03-31T01:12:39.131Z,98474.02
2018-03-31T01:15:07.485Z,98468.08
2018-03-31T01:17:35.862Z,98468.39
2018-03-31T01:20:04.214Z,98466.29
2018-03-31T01:22:33.349Z,98466.79
2018-03-31T01:25:01.670Z,98466.97
2018-03-31T01:27:30.054Z,98474.91
2018-03-31T01:29:58.386Z,98474.64
2018-03-31T01:32:26.808Z,98471.16
2018-03-31T01:34:55.219Z,98477.33
2018-03-31T01:37:23.590Z,98468.53
2018-03-31T01:39:51.960Z,98477.13
2018-03-31T01:42:20.341Z,98473.45
2018-03-31T01:44:49.456Z,98481.00
2018-03-31T01:47:17.813Z,98469.69
2018-03-31T01:49:46.184Z,98470.77
2018-03-31T01:52:15.291Z,98468.35
2018-03-31T01:54:43.685Z,98469.23
2018-03-31T01:57:12.019Z,98470.97
2018-03-31T01:59:41.187Z,98471.59
2018-03-31T02:02:09.495Z,98473.47
2018-03-31T02:04:38.631Z,98474.31
2018-03-31T02:07:06.983Z,98459.63
2018-03-31T02:09:36.100Z,98469.22
2018-03-31T02:12:04.441Z,98469.49
2018-03-31T02:14:33.560Z,98464.57
2018-03-31T02:17:01.936Z,98461.53
2018-03-31T02:19:31.057Z,98468.52
2018-03-31T02:21:59.402Z,98467.12
2018-03-31T02:24:28.535Z,98467.91
2018-03-31T02:26:56.874Z,98470.39
2018-03-31T02:29:25.317Z,98472.61
2018-03-31T02:31:53.686Z,98472.05
2018-03-31T02:34:22.055Z,98462.47
2018-03-31T02:36:50.411Z,98461.81
2018-03-31T02:39:18.778Z,98458.55
2018-03-31T02:41:47.172Z,98471.36
2018-03-31T02:44:15.535Z,98463.66
2018-03-31T02:46:43.882Z,98462.95
2018-03-31T02:49:13.037Z,98464.97
2018-03-31T02:51:41.389Z,98463.84
2018-03-31T02:54:09.775Z,98456.38
2018-03-31T02:56:38.142Z,98462.66
2018-03-31T02:59:06.507Z,98451.64
2018-03-31T03:01:34.916Z,98450.87
2018-03-31T03:04:03.259Z,98452.78
2018-03-31T03:06:32.380Z,98456.95
2018-03-31T03:09:00.758Z,98458.80
2018-03-31T03:11:29.117Z,98454.65
2018-03-31T03:13:57.463Z,98459.83
2018-03-31T03:16:25.826Z,98459.78
2018-03-31T03:18:54.274Z,98458.64
2018-03-31T03:21:22.639Z,98463.20
2018-03-31T03:23:50.992Z,98463.77
2018-03-31T03:26:20.122Z,98470.00
2018-03-31T03:28:48.472Z,98470.78
2018-03-31T03:31:17.604Z,98479.56
2018-03-31T03:33:45.959Z,98482.86
2018-03-31T03:36:14.324Z,98485.33
2018-03-31T03:38:43.452Z,98486.28
2018-03-31T03:41:11.830Z,98488.45
2018-03-31T03:43:40.195Z,98496.00
2018-03-31T03:46:08.569Z,98504.25
2018-03-31T03:48:36.919Z,98509.25
2018-03-31T03:51:06.046Z,98511.70
2018-03-31T03:53:34.666Z,98518.92
2018-03-31T03:56:03.031Z,98522.48
2018-03-31T03:58:31.379Z,98528.83
2018-03-31T04:00:59.729Z,98524.92
2018-03-31T04:03:28.844Z,98521.70
2018-03-31T04:05:57.189Z,98515.27
2018-03-31T04:08:25.555Z,98518.08
2018-03-31T04:10:53.940Z,98512.08
2018-03-31T04:13:22.468Z,98514.36
2018-03-31T04:15:50.804Z,98516.11
2018-03-31T04:18:19.186Z,98513.39
2018-03-31T04:20:47.559Z,98521.36
2018-03-31T04:23:16.706Z,98522.17
2018-03-31T04:25:45.063Z,98522.79
2018-03-31T04:28:13.420Z,98518.58
2018-03-31T04:30:42.556Z,98518.12
2018-03-31T04:33:10.895Z,98517.13
2018-03-31T04:35:40.038Z,98516.03
2018-03-31T04:38:08.387Z,98513.45
2018-03-31T04:40:36.742Z,98505.23
2018-03-31T04:43:05.892Z,98508.34
2018-03-31T04:45:34.252Z,98509.78
2018-03-31T04:48:02.622Z,98513.99
2018-03-31T04:50:31.026Z,98508.88
2018-03-31T04:52:59.413Z,98510.31
2018-03-31T04:55:27.767Z,98511.05
2018-03-31T04:57:56.120Z,98510.99
2018-03-31T05:00:25.251Z,98518.01
2018-03-31T05:02:53.588Z,98512.00
2018-03-31T05:05:22.711Z,98512.00
2018-03-31T05:07:51.070Z,98512.42
2018-03-31T05:10:20.199Z,98525.34
2018-03-31T05:12:48.579Z,98529.23
2018-03-31T05:15:16.962Z,98522.59
2018-03-31T05:17:45.324Z,98519.16
2018-03-31T05:20:14.535Z,98529.32
2018-03-31T05:22:42.968Z,98527.24
2018-03-31T05:25:11.324Z,98529.16
2018-03-31T05:27:40.757Z,98524.78
2018-03-31T05:30:09.876Z,98528.70
2018-03-31T05:32:38.233Z,98536.76
2018-03-31T05:35:07.344Z,98532.55
2018-03-31T05:37:35.729Z,98536.03
2018-03-31T05:40:04.091Z,98527.47
2018-03-31T05:42:32.474Z,98533.87
2018-03-31T05:45:00.842Z,98536.98
2018-03-31T05:47:29.238Z,98545.55
2018-03-31T05:49:57.595Z,98548.94
2018-03-31T05:52:25.978Z,98542.77
2018-03-31T05:54:54.349Z,98553.27
2018-03-31T05:57:23.489Z,98548.41
2018-03-31T05:59:51.846Z,98545.03
2018-03-31T06:02:20.219Z,98549.00
2018-03-31T06:04:48.598Z,98549.61
2018-03-31T06:07:16.982Z,98546.02
2018-03-31T06:09:45.346Z,98539.73
2018-03-31T06:12:13.848Z,98538.77
2018-03-31T06:14:42.203Z,98532.68
2018-03-31T06:17:10.551Z,98531.35
2018-03-31T06:19:40.472Z,98537.69
2018-03-31T06:22:10.540Z,98543.50
2018-03-31T06:24:38.940Z,98546.56
2018-03-31T06:27:07.289Z,98542.59
2018-03-31T06:29:35.690Z,98546.69
2018-03-31T06:32:04.035Z,98548.09
2018-03-31T06:34:32.408Z,98551.43
2018-03-31T06:37:00.755Z,98551.31
2018-03-31T06:39:29.873Z,98559.58
2018-03-31T06:41:58.252Z,98561.55
2018-03-31T06:44:26.725Z,98551.21
2018-03-31T06:46:55.071Z,98553.14
2018-03-31T06:49:23.392Z,98560.33
2018-03-31T06:51:51.784Z,98561.34
2018-03-31T06:54:20.139Z,98562.19
2018-03-31T06:56:48.516Z,98567.76
2018-03-31T06:59:16.886Z,98570.02
2018-03-31T07:01:46.011Z,98569.16
2018-03-31T07:04:14.399Z,98579.22
2018-03-31T07:06:42.818Z,98572.41
2018-03-31T07:09:11.171Z,98581.00
2018-03-31T07:11:39.535Z,98578.52
2018-03-31T07:14:07.891Z,98574.22
2018-03-31T07:16:36.269Z,98582.39
2018-03-31T07:19:04.635Z,98576.73
2018-03-31T07:21:33.018Z,98583.37
2018-03-31T07:26:35.867Z,98578.37
2018-03-31T07:29:04.227Z,98585.63
2018-03-31T07:31:32.624Z,98584.61
2018-03-31T07:34:01.266Z,98585.77
2018-03-31T07:36:29.654Z,98575.16
2018-03-31T07:38:58.193Z,98581.66
2018-03-31T07:41:27.398Z,98579.70
2018-03-31T07:43:56.531Z,98583.97
2018-03-31T07:46:24.904Z,98587.23
2018-03-31T07:48:54.095Z,98586.77
2018-03-31T07:51:22.439Z,98589.77
2018-03-31T07:53:51.581Z,98598.27
2018-03-31T07:56:19.946Z,98591.20
2018-03-31T07:58:48.307Z,98597.66
2018-03-31T08:01:16.676Z,98596.74
2018-03-31T08:03:45.095Z,98595.10
2018-03-31T08:06:13.450Z,98596.77
2018-03-31T08:08:41.808Z,98591.23
2018-03-31T08:11:10.150Z,98595.42
2018-03-31T08:13:38.523Z,98593.34
2018-03-31T08:16:06.884Z,98600.98
2018-03-31T08:18:35.291Z,98599.09
2018-03-31T08:21:03.711Z,98594.27
2018-03-31T08:23:32.076Z,98593.09
2018-03-31T08:26:00.441Z,98593.73
2018-03-31T08:28:29.604Z,98590.50
2018-03-31T08:30:57.936Z,98588.77
2018-03-31T08:33:26.307Z,98595.06
2018-03-31T08:35:55.423Z,98593.97
2018-03-31T08:38:23.815Z,98590.64
2018-03-31T08:40:52.175Z,98592.25
2018-03-31T08:43:20.524Z,98592.44
2018-03-31T08:45:48.925Z,98587.56
2018-03-31T08:48:17.575Z,98589.34
2018-03-31T08:50:46.739Z,98590.95
2018-03-31T08:53:15.846Z,98595.03
2018-03-31T08:55:44.211Z,98595.21
2018-03-31T08:58:12.602Z,98600.02
2018-03-31T09:00:40.968Z,98594.05
2018-03-31T09:03:09.329Z,98596.73
2018-03-31T09:05:37.695Z,98596.20
2018-03-31T09:08:07.015Z,98599.25
2018-03-31T09:10:35.420Z,98599.95
2018-03-31T09:13:03.823Z,98597.27
2018-03-31T09:15:32.993Z,98597.95
2018-03-31T09:18:01.355Z,98593.77
2018-03-31T09:20:29.728Z,98595.10
2018-03-31T09:22:58.107Z,98599.98
2018-03-31T09:25:26.471Z,98603.17
2018-03-31T09:27:54.858Z,98601.30
2018-03-31T09:30:23.216Z,98601.88
2018-03-31T09:32:51.745Z,98600.38
2018-03-31T09:35:20.083Z,98609.65
2018-03-31T09:37:48.461Z,98604.16
2018-03-31T09:40:16.785Z,98601.34
2018-03-31T09:42:45.903Z,98600.41
2018-03-31T09:45:14.303Z,98599.32
2018-03-31T09:47:42.699Z,98601.84
2018-03-31T09:50:11.067Z,98599.22
2018-03-31T09:52:39.460Z,98600.31
2018-03-31T09:55:07.862Z,98603.12
2018-03-31T09:57:37.001Z,98604.88
2018-03-31T10:00:05.378Z,98616.89
2018-03-31T10:02:33.717Z,98612.79
2018-03-31T10:05:02.100Z,98619.41
2018-03-31T10:07:30.449Z,98614.20
2018-03-31T10:09:58.909Z,98620.92
2018-03-31T10:12:27.239Z,98626.34
2018-03-31T10:14:55.581Z,98628.09
2018-03-31T10:17:23.976Z,98624.28
2018-03-31T10:19:52.336Z,98630.91
2018-03-31T10:22:20.694Z,98621.79
2018-03-31T10:24:49.076Z,98629.92
2018-03-31T10:27:17.459Z,98622.91
2018-03-31T10:29:45.826Z,98623.06
2018-03-31T10:32:14.174Z,98625.23
2018-03-31T10:34:43.294Z,98624.02
2018-03-31T10:37:11.671Z,98629.60
2018-03-31T10:39:40.134Z,98637.42
2018-03-31T10:42:09.337Z,98626.55
2018-03-31T10:44:37.698Z,98639.86
2018-03-31T10:47:06.871Z,98637.24
2018-03-31T10:49:35.238Z,98630.26
2018-03-31T10:52:03.616Z,98641.80
2018-03-31T10:54:31.986Z,98634.64
2018-03-31T10:57:00.342Z,98640.27
2018-03-31T10:59:28.708Z,98634.25
2018-03-31T11:01:57.091Z,98641.22
2018-03-31T11:04:25.483Z,98630.76
2018-03-31T11:06:53.860Z,98636.89
2018-03-31T11:09:22.222Z,98635.09
2018-03-31T11:11:50.599Z,98635.70
2018-03-31T11:14:18.973Z,98633.17
2018-03-31T11:16:47.364Z,98646.39
2018-03-31T11:19:15.754Z,98641.52
2018-03-31T11:21:44.187Z,98634.97
2018-03-31T11:24:12.535Z,98631.56
2018-03-31T11:26:40.936Z,98632.73
2018-03-31T11:29:10.072Z,98622.49
2018-03-31T11:31:38.441Z,98631.14
2018-03-31T11:34:06.820Z,98631.01
2018-03-31T11:36:35.200Z,98638.67
2018-03-31T11:39:03.569Z,98643.71
2018-03-31T11:41:31.947Z,98635.86
2018-03-31T11:44:00.343Z,98634.41
2018-03-31T11:46:28.712Z,98640.34
2018-03-31T11:48:57.107Z,98633.26
2018-03-31T11:51:25.489Z,98633.72
2018-03-31T11:53:53.858Z,98627.34
2018-03-31T11:56:22.239Z,98629.15
2018-03-31T11:58:50.629Z,98625.34
2018-03-31T12:01:19.020Z,98621.73
2018-03-31T12:03:47.380Z,98626.70
2018-03-31T12:06:15.752Z,98622.95
2018-03-31T12:08:44.101Z,98619.52
2018-03-31T12:11:13.242Z,98615.17
2018-03-31T12:13:41.596Z,98621.81
2018-03-31T12:16:09.963Z,98619.72
2018-03-31T12:18:38.315Z,98616.52
2018-03-31T12:21:07.953Z,98611.66
2018-03-31T12:23:36.271Z,98615.51
2018-03-31T12:26:04.681Z,98617.56
2018-03-31T12:28:33.799Z,98613.13
2018-03-31T12:31:02.186Z,98613.30
2018-03-31T12:33:30.562Z,98608.21
2018-03-31T12:35:58.933Z,98611.99
2018-03-31T12:38:27.330Z,98616.13
2018-03-31T12:40:55.732Z,98621.20
2018-03-31T12:43:24.079Z,98613.67
2018-03-31T12:45:52.455Z,98617.15
2018-03-31T12:48:20.834Z,98614.77
2018-03-31T12:50:49.170Z,98614.81
2018-03-31T12:53:18.320Z,98608.34
2018-03-31T12:55:46.690Z,98607.42
2018-03-31T12:58:15.079Z,98608.59
2018-03-31T13:00:43.551Z,98607.05
2018-03-31T13:03:11.930Z,98602.19
2018-03-31T13:05:40.308Z,98603.87
2018-03-31T13:08:08.691Z,98595.05
2018-03-31T13:10:37.054Z,98596.66
2018-03-31T13:13:05.448Z,98598.98
2018-03-31T13:15:33.842Z,98589.00
2018-03-31T13:18:02.219Z,98596.48
2018-03-31T13:20:30.601Z,98590.75
2018-03-31T13:22:58.949Z,98592.27
2018-03-31T13:25:27.308Z,98592.56
2018-03-31T13:27:55.674Z,98589.26
2018-03-31T13:30:24.085Z,98594.32
2018-03-31T13:32:53.269Z,98586.86
2018-03-31T13:35:21.648Z,98584.72
2018-03-31T13:37:50.015Z,98572.31
2018-03-31T13:40:18.434Z,98580.20
2018-03-31T13:42:46.806Z,98584.14
2018-03-31T13:45:15.254Z,98580.20
2018-03-31T13:47:43.607Z,98575.44
2018-03-31T13:50:12.746Z,98581.28
2018-03-31T13:52:41.138Z,98578.61
2018-03-31T13:55:09.511Z,98579.03
2018-03-31T13:57:38.622Z,98576.56
2018-03-31T14:00:07.007Z,98572.70
2018-03-31T14:02:35.427Z,98577.42
2018-03-31T14:05:03.775Z,98575.81
2018-03-31T14:07:32.907Z,98574.80
2018-03-31T14:10:01.337Z,98578.78
2018-03-31T14:12:29.941Z,98578.16
2018-03-31T14:14:59.109Z,98574.80
2018-03-31T14:17:27.492Z,98575.23
2018-03-31T14:19:55.851Z,98583.71
2018-03-31T14:22:24.302Z,98584.97
2018-03-31T14:24:52.781Z,98584.86
2018-03-31T14:27:21.161Z,98581.75
2018-03-31T14:29:49.550Z,98577.80
2018-03-31T14:32:17.926Z,98578.19
2018-03-31T14:34:46.398Z,98579.00
2018-03-31T14:37:14.952Z,98587.92
2018-03-31T14:39:44.115Z,98585.84
2018-03-31T14:42:12.503Z,98584.91
2018-03-31T14:44:40.843Z,98580.89
2018-03-31T14:47:09.254Z,98581.36
2018-03-31T14:49:37.635Z,98587.94
2018-03-31T14:52:06.007Z,98591.55
2018-03-31T14:54:34.390Z,98593.14
2018-03-31T14:57:02.908Z,98590.33
2018-03-31T14:59:31.269Z,98591.94
2018-03-31T15:02:00.440Z,98590.91
2018-03-31T15:04:30.314Z,98591.97
2018-03-31T15:06:58.839Z,98591.28
2018-03-31T15:09:27.182Z,98590.03
2018-03-31T15:11:55.534Z,98592.56
2018-03-31T15:14:23.939Z,98593.94
2018-03-31T15:16:52.306Z,98601.05
2018-03-31T15:19:20.711Z,98604.30
2018-03-31T15:21:49.175Z,98603.95
2018-03-31T15:24:17.514Z,98596.22
2018-03-31T15:26:45.883Z,98604.65
2018-03-31T15:29:14.282Z,98603.12
2018-03-31T15:31:43.399Z,98597.00
2018-03-31T15:34:11.825Z,98594.60
2018-03-31T15:36:41.051Z,98594.66
2018-03-31T15:39:09.551Z,98590.95
2018-03-31T15:41:37.995Z,98595.48
2018-03-31T15:44:07.332Z,98591.84
2018-03-31T15:46:36.512Z,98591.41
2018-03-31T15:49:05.651Z,98593.40
2018-03-31T15:51:34.963Z,98593.01
2018-03-31T15:54:03.355Z,98589.79
2018-03-31T15:56:32.489Z,98597.28
2018-03-31T15:59:00.851Z,98595.56
2018-03-31T16:01:29.988Z,98595.62
2018-03-31T16:03:58.399Z,98592.50
2018-03-31T16:06:26.746Z,98595.57
2018-03-31T16:08:55.147Z,98599.91
2018-03-31T16:11:23.532Z,98594.07
2018-03-31T16:13:52.679Z,98587.58
2018-03-31T16:16:22.113Z,98595.61
2018-03-31T16:18:50.483Z,98592.02
2018-03-31T16:21:18.875Z,98592.91
2018-03-31T16:23:47.182Z,98588.09
2018-03-31T16:26:15.595Z,98589.59
2018-03-31T16:28:43.964Z,98593.05
2018-03-31T16:31:12.340Z,98592.63
2018-03-31T16:33:40.694Z,98589.21
2018-03-31T16:36:09.893Z,98582.33
2018-03-31T16:38:39.014Z,98584.80
2018-03-31T16:41:07.399Z,98588.30
2018-03-31T16:43:35.791Z,98588.55
2018-03-31T16:46:04.179Z,98585.82
2018-03-31T16:48:32.584Z,98587.78
2018-03-31T16:51:00.945Z,98576.86
2018-03-31T16:53:29.326Z,98581.85
2018-03-31T16:55:57.772Z,98588.69
2018-03-31T16:58:26.232Z,98587.46
2018-03-31T17:00:54.674Z,98593.35
2018-03-31T17:03:23.062Z,98594.66
2018-03-31T17:05:52.236Z,98605.92
2018-03-31T17:08:23.639Z,98599.25
2018-03-31T17:10:52.052Z,98599.26
2018-03-31T17:13:20.467Z,98597.69
2018-03-31T17:15:49.599Z,98603.23
2018-03-31T17:18:17.981Z,98602.78
2018-03-31T17:20:46.359Z,98601.52
2018-03-31T17:23:14.743Z,98605.02
2018-03-31T17:25:43.115Z,98607.83
2018-03-31T17:28:11.497Z,98612.30
2018-03-31T17:30:39.926Z,98608.45
2018-03-31T17:33:08.306Z,98611.75
2018-03-31T17:35:36.723Z,98608.86
2018-03-31T17:38:05.123Z,98611.55
2018-03-31T17:40:33.576Z,98607.20
2018-03-31T17:43:02.002Z,98612.66
2018-03-31T17:45:30.402Z,98608.16
2018-03-31T17:47:59.542Z,98619.30
2018-03-31T17:50:27.921Z,98618.77
2018-03-31T17:52:56.359Z,98621.03
2018-03-31T17:55:25.601Z,98615.97
2018-03-31T17:57:53.970Z,98615.97
2018-03-31T18:00:22.342Z,98624.83
2018-03-31T18:02:50.711Z,98625.70
2018-03-31T18:05:19.106Z,98623.66
2018-03-31T18:07:47.552Z,98626.46
2018-03-31T18:10:15.974Z,98629.75
2018-03-31T18:12:44.343Z,98633.69
2018-03-31T18:15:12.712Z,98640.51
2018-03-31T18:17:41.080Z,98636.11
2018-03-31T18:20:09.458Z,98637.52
2018-03-31T18:22:39.523Z,98641.81
2018-03-31T18:25:07.896Z,98636.40
2018-03-31T18:27:36.275Z,98637.33
2018-03-31T18:30:04.693Z,98642.61
2018-03-31T18:32:33.858Z,98643.93
2018-03-31T18:35:02.222Z,98651.73
2018-03-31T18:37:30.746Z,98645.59
2018-03-31T18:39:59.871Z,98649.97
2018-03-31T18:42:28.277Z,98658.18
2018-03-31T18:44:56.635Z,98663.88
2018-03-31T18:47:25.760Z,98671.52
2018-03-31T18:49:54.114Z,98666.69
2018-03-31T18:52:22.685Z,98671.21
2018-03-31T18:54:51.774Z,98677.06
2018-03-31T18:57:20.148Z,98688.25
2018-03-31T18:59:48.520Z,98690.02
2018-03-31T19:02:16.894Z,98688.27
2018-03-31T19:04:46.039Z,98694.25
2018-03-31T19:07:14.476Z,98701.78
2018-03-31T19:09:43.647Z,98701.17
2018-03-31T19:12:12.804Z,98705.75
2018-03-31T19:14:42.981Z,98705.90
2018-03-31T19:17:16.330Z,98714.86
2018-03-31T19:19:44.739Z,98703.58
2018-03-31T19:22:13.129Z,98710.70
2018-03-31T19:24:47.034Z,98711.27
2018-03-31T19:27:15.400Z,98713.22
2018-03-31T19:29:43.780Z,98719.30
2018-03-31T19:32:12.143Z,98725.98
2018-03-31T19:34:40.506Z,98729.17
2018-03-31T19:37:08.883Z,98730.43
2018-03-31T19:39:42.851Z,98727.97
2018-03-31T19:42:11.252Z,98724.41
2018-03-31T19:44:39.627Z,98725.59
2018-03-31T19:47:08.018Z,98727.34
2018-03-31T19:49:36.566Z,98731.62
2018-03-31T19:52:04.942Z,98738.48
2018-03-31T19:54:33.308Z,98736.98
2018-03-31T19:57:01.772Z,98736.09
2018-03-31T19:59:30.141Z,98741.41
2018-03-31T20:01:58.498Z,98735.70
2018-03-31T20:04:26.887Z,98742.77
2018-03-31T20:06:55.247Z,98747.00
2018-03-31T20:09:23.704Z,98750.45
2018-03-31T20:11:52.063Z,98750.09
2018-03-31T20:14:20.449Z,98748.84
2018-03-31T20:16:48.820Z,98753.19
2018-03-31T20:19:17.939Z,98745.67
2018-03-31T20:21:46.588Z,98750.37
2018-03-31T20:24:15.710Z,98747.64
2018-03-31T20:26:44.086Z,98753.02
2018-03-31T20:29:12.429Z,98757.54
2018-03-31T20:31:41.578Z,98755.68
2018-03-31T20:34:09.944Z,98750.55
2018-03-31T20:36:38.321Z,98749.41
2018-03-31T20:39:06.743Z,98751.11
2018-03-31T20:41:35.156Z,98753.60
2018-03-31T20:44:04.297Z,98749.23
2018-03-31T20:46:32.648Z,98752.70
2018-03-31T20:49:01.076Z,98747.59
2018-03-31T20:51:29.497Z,98751.70
2018-03-31T20:53:57.893Z,98743.97
2018-03-31T20:56:26.254Z,98743.40
2018-03-31T20:58:54.740Z,98734.88
2018-03-31T21:01:23.144Z,98747.89
2018-03-31T21:03:51.503Z,98753.30
2018-03-31T21:06:19.902Z,98763.66
2018-03-31T21:08:48.299Z,98761.17
2018-03-31T21:11:16.673Z,98763.11
2018-03-31T21:13:45.814Z,98761.64
2018-03-31T21:16:14.187Z,98761.70
2018-03-31T21:18:42.601Z,98771.12
2018-03-31T21:21:10.936Z,98775.04
2018-03-31T21:23:40.135Z,98786.46
2018-03-31T21:26:09.303Z,98804.37
2018-03-31T21:28:37.663Z,98813.38
2018-03-31T21:31:06.110Z,98819.89
2018-03-31T21:33:34.446Z,98823.86
2018-03-31T21:36:02.820Z,98822.23
2018-03-31T21:38:31.167Z,98816.75
2018-03-31T21:40:59.581Z,98827.44
2018-03-31T21:43:27.968Z,98833.03
2018-03-31T21:45:56.331Z,98835.00
2018-03-31T21:48:24.719Z,98838.66
2018-03-31T21:50:53.079Z,98842.42
2018-03-31T21:53:21.423Z,98835.55
2018-03-31T21:55:49.783Z,98839.88
2018-03-31T21:58:18.159Z,98835.69
2018-03-31T22:00:46.590Z,98841.74
2018-03-31T22:03:14.967Z,98833.77
2018-03-31T22:05:43.334Z,98844.38
2018-03-31T22:08:11.703Z,98842.89
2018-03-31T22:10:40.077Z,98847.40
2018-03-31T22:13:14.003Z,98845.16
2018-03-31T22:15:47.899Z,98852.23
2018-03-31T22:18:16.273Z,98846.83
2018-03-31T22:20:44.614Z,98848.96
2018-03-31T22:23:12.995Z,98850.94
2018-03-31T22:25:41.385Z,98845.30
2018-03-31T22:28:09.742Z,98844.72
2018-03-31T22:30:38.098Z,98845.55
2018-03-31T22:33:06.530Z,98851.13
2018-03-31T22:35:34.938Z,98851.64
2018-03-31T22:38:03.270Z,98844.91
2018-03-31T22:40:32.383Z,98840.44
2018-03-31T22:43:00.787Z,98841.64
2018-03-31T22:45:29.903Z,98844.30
2018-03-31T22:47:58.267Z,98843.55
2018-03-31T22:50:26.644Z,98849.80
2018-03-31T22:52:54.998Z,98847.53
2018-03-31T22:55:23.383Z,98855.05
2018-03-31T22:57:51.778Z,98857.31
2018-03-31T23:00:20.142Z,98855.00
2018-03-31T23:02:48.501Z,98857.09
2018-03-31T23:05:16.876Z,98857.53
2018-03-31T23:07:45.246Z,98852.48
2018-03-31T23:10:13.614Z,98853.05
2018-03-31T23:12:42.001Z,98858.11
2018-03-31T23:15:10.383Z,98859.38
2018-03-31T23:17:38.766Z,98856.27
2018-03-31T23:20:07.138Z,98858.67
2018-03-31T23:22:35.524Z,98860.73
2018-03-31T23:25:03.911Z,98853.80
2018-03-31T23:27:32.264Z,98858.52
2018-03-31T23:30:00.631Z,98863.67
2018-03-31T23:32:28.980Z,98864.98
2018-03-31T23:34:57.338Z,98862.06
2018-03-31T23:37:25.728Z,98858.73
2018-03-31T23:39:54.068Z,98862.80
2018-03-31T23:42:22.425Z,98868.16
2018-03-31T23:44:50.774Z,98873.10
2018-03-31T23:47:19.899Z,98872.14
2018-03-31T23:49:48.257Z,98870.12
2018-03-31T23:52:17.382Z,98874.23
2018-03-31T23:54:45.742Z,98876.03
2018-03-31T23:57:14.098Z,98878.34
2018-03-31T23:59:42.450Z,98871.70
